createdAt,value
2023-04-13T00:01:11.465Z,3.90
2023-04-13T00:03:39.611Z,2.97
2023-04-13T00:06:11.098Z,3.03
2023-04-13T00:08:38.183Z,3.20
2023-04-13T00:11:06.143Z,3.50
2023-04-13T00:13:37.290Z,3.30
2023-04-13T00:16:05.968Z,2.80
2023-04-13T00:18:32.669Z,2.90
2023-04-13T00:21:00.270Z,3.37
2023-04-13T00:23:27.156Z,2.23
2023-04-13T00:25:53.907Z,3.63
2023-04-13T00:28:20.584Z,3.30
2023-04-13T00:30:47.434Z,3.20
2023-04-13T00:33:14.194Z,2.97
2023-04-13T00:35:41.807Z,3.10
2023-04-13T00:38:08.903Z,2.90
2023-04-13T00:40:38.032Z,3.57
2023-04-13T00:43:05.820Z,2.77
2023-04-13T00:45:39.034Z,4.40
2023-04-13T00:48:09.770Z,2.87
2023-04-13T00:50:37.050Z,3.13
2023-04-13T00:53:08.169Z,2.83
2023-04-13T00:55:38.665Z,3.03
2023-04-13T00:58:06.489Z,3.40
2023-04-13T01:00:33.133Z,2.40
2023-04-13T01:03:02.038Z,2.50
2023-04-13T01:05:32.624Z,2.30
2023-04-13T01:08:12.452Z,2.27
2023-04-13T01:10:46.721Z,2.47
2023-04-13T01:13:40.582Z,2.47
2023-04-13T01:16:16.271Z,3.10
2023-04-13T01:18:45.964Z,2.80
2023-04-13T01:21:14.356Z,2.60
2023-04-13T01:23:51.629Z,1.93
2023-04-13T01:26:18.747Z,2.63
2023-04-13T01:28:46.764Z,2.13
2023-04-13T01:31:14.053Z,2.70
2023-04-13T01:33:41.432Z,2.70
2023-04-13T01:36:10.583Z,1.53
2023-04-13T01:38:37.994Z,2.13
2023-04-13T01:41:04.859Z,2.20
2023-04-13T01:43:31.570Z,2.50
2023-04-13T01:46:05.001Z,2.40
2023-04-13T01:48:46.219Z,2.63
2023-04-13T01:51:20.657Z,2.13
2023-04-13T01:53:53.737Z,2.37
2023-04-13T01:56:23.279Z,2.07
2023-04-13T01:58:53.547Z,2.33
2023-04-13T02:01:20.268Z,2.23
2023-04-13T02:03:47.399Z,2.13
2023-04-13T02:06:14.757Z,2.20
2023-04-13T02:08:42.170Z,3.20
2023-04-13T02:11:10.292Z,2.57
2023-04-13T02:13:37.010Z,2.77
2023-04-13T02:16:06.652Z,2.90
2023-04-13T02:18:33.966Z,2.70
2023-04-13T02:21:09.368Z,2.73
2023-04-13T02:23:37.728Z,2.37
2023-04-13T02:26:06.877Z,2.17
2023-04-13T02:28:33.710Z,2.80
2023-04-13T02:31:00.317Z,2.90
2023-04-13T02:33:32.872Z,2.60
2023-04-13T02:36:00.502Z,2.40
2023-04-13T02:38:32.122Z,2.17
2023-04-13T02:40:59.566Z,2.10
2023-04-13T02:43:29.116Z,2.33
2023-04-13T02:45:56.394Z,1.93
2023-04-13T02:48:23.718Z,2.47
2023-04-13T02:50:51.258Z,2.13
2023-04-13T02:53:18.069Z,2.20
2023-04-13T02:55:44.955Z,2.20
2023-04-13T02:58:12.367Z,2.50
2023-04-13T03:00:39.268Z,2.57
2023-04-13T03:03:07.002Z,2.17
2023-04-13T03:05:34.079Z,2.40
2023-04-13T03:08:00.881Z,2.30
2023-04-13T03:10:27.664Z,1.87
2023-04-13T03:12:55.057Z,2.10
2023-04-13T03:15:21.989Z,2.37
2023-04-13T03:17:48.875Z,2.60
2023-04-13T03:20:17.014Z,2.20
2023-04-13T03:22:45.449Z,1.70
2023-04-13T03:25:12.740Z,2.57
2023-04-13T03:27:39.655Z,2.57
2023-04-13T03:30:07.815Z,1.77
2023-04-13T03:32:34.721Z,2.00
2023-04-13T03:35:01.597Z,1.43
2023-04-13T03:37:30.404Z,1.93
2023-04-13T03:39:58.705Z,1.20
2023-04-13T03:42:25.567Z,0.60
2023-04-13T03:44:52.727Z,1.40
2023-04-13T03:47:19.831Z,2.27
2023-04-13T03:49:46.625Z,1.77
2023-04-13T03:52:13.378Z,2.40
2023-04-13T03:54:40.479Z,1.87
2023-04-13T03:57:07.302Z,2.07
2023-04-13T03:59:34.391Z,2.40
2023-04-13T04:02:03.071Z,3.10
2023-04-13T04:04:30.135Z,4.37
2023-04-13T04:06:58.256Z,4.00
2023-04-13T04:09:25.660Z,5.97
2023-04-13T04:11:52.510Z,3.10
2023-04-13T04:14:20.549Z,3.40
2023-04-13T04:16:47.440Z,2.30
2023-04-13T04:19:14.362Z,2.20
2023-04-13T04:21:46.847Z,1.37
2023-04-13T04:24:23.636Z,1.30
2023-04-13T04:26:50.531Z,1.57
2023-04-13T04:29:17.906Z,1.30
2023-04-13T04:31:44.660Z,1.07
2023-04-13T04:34:11.701Z,1.80
2023-04-13T04:36:41.729Z,0.97
2023-04-13T04:39:10.131Z,1.33
2023-04-13T04:41:37.986Z,1.87
2023-04-13T04:44:08.374Z,2.00
2023-04-13T04:46:38.806Z,2.07
2023-04-13T04:49:05.444Z,1.97
2023-04-13T04:51:32.224Z,1.97
2023-04-13T04:54:01.592Z,2.80
2023-04-13T04:56:29.041Z,3.13
2023-04-13T04:58:55.778Z,2.17
2023-04-13T05:01:26.465Z,1.33
2023-04-13T05:03:53.809Z,2.70
2023-04-13T05:06:20.901Z,4.30
2023-04-13T05:08:47.608Z,15.57
2023-04-13T05:11:14.415Z,4.57
2023-04-13T05:13:41.920Z,5.80
2023-04-13T05:16:10.857Z,6.13
2023-04-13T05:18:45.247Z,5.77
2023-04-13T05:21:13.157Z,2.97
2023-04-13T05:23:40.261Z,1.10
2023-04-13T05:26:08.461Z,1.00
2023-04-13T05:28:35.869Z,0.87
2023-04-13T05:31:11.233Z,0.63
2023-04-13T05:33:38.312Z,0.53
2023-04-13T05:36:05.617Z,0.83
2023-04-13T05:38:33.349Z,0.47
2023-04-13T05:41:00.274Z,0.70
2023-04-13T05:43:27.110Z,0.20
2023-04-13T05:45:53.894Z,0.30
2023-04-13T05:48:20.894Z,0.60
2023-04-13T05:50:47.712Z,0.20
2023-04-13T05:53:14.487Z,0.40
2023-04-13T05:55:43.068Z,0.30
2023-04-13T05:58:11.097Z,0.20
2023-04-13T06:00:38.982Z,0.20
2023-04-13T06:03:07.605Z,0.20
2023-04-13T06:05:36.810Z,0.20
2023-04-13T06:08:03.654Z,0.20
2023-04-13T06:10:30.491Z,0.20
2023-04-13T06:12:57.377Z,0.20
2023-04-13T06:15:24.347Z,0.30
2023-04-13T06:17:52.753Z,0.20
2023-04-13T06:20:22.697Z,0.20
2023-04-13T06:22:49.762Z,0.30
2023-04-13T06:25:16.792Z,0.20
2023-04-13T06:27:44.304Z,1.20
2023-04-13T06:30:12.278Z,0.60
2023-04-13T06:32:39.191Z,0.50
2023-04-13T06:35:06.667Z,0.50
2023-04-13T06:37:35.857Z,0.20
2023-04-13T06:40:13.025Z,0.40
2023-04-13T06:42:41.586Z,0.40
2023-04-13T06:45:12.386Z,0.60
2023-04-13T06:47:41.306Z,1.00
2023-04-13T06:50:09.528Z,1.10
2023-04-13T06:52:37.142Z,5.43
2023-04-13T06:55:04.730Z,1.20
2023-04-13T06:57:31.608Z,0.40
2023-04-13T06:59:58.606Z,0.30
2023-04-13T07:02:27.000Z,0.37
2023-04-13T07:04:54.074Z,0.70
2023-04-13T07:07:30.314Z,5.00
2023-04-13T07:09:58.336Z,5.43
2023-04-13T07:12:26.376Z,4.13
2023-04-13T07:14:53.204Z,4.57
2023-04-13T07:17:20.074Z,1.17
2023-04-13T07:19:47.976Z,0.20
2023-04-13T07:22:14.925Z,0.20
2023-04-13T07:24:41.893Z,0.20
2023-04-13T07:27:08.707Z,0.23
2023-04-13T07:29:35.524Z,0.20
2023-04-13T07:32:04.582Z,0.30
2023-04-13T07:34:31.362Z,0.40
2023-04-13T07:36:58.152Z,0.20
2023-04-13T07:39:25.010Z,0.20
2023-04-13T07:41:51.820Z,0.20
2023-04-13T07:44:18.755Z,0.20
2023-04-13T07:46:45.890Z,0.20
2023-04-13T07:49:12.616Z,0.10
2023-04-13T07:51:39.361Z,0.10
2023-04-13T07:54:06.357Z,0.20
2023-04-13T07:56:33.103Z,0.20
2023-04-13T07:59:00.061Z,0.17
2023-04-13T08:01:27.666Z,0.20
2023-04-13T08:03:54.480Z,0.20
2023-04-13T08:06:22.294Z,0.10
2023-04-13T08:08:49.560Z,0.30
2023-04-13T08:11:16.898Z,0.20
2023-04-13T08:13:43.825Z,0.20
2023-04-13T08:16:11.313Z,0.20
2023-04-13T08:18:38.473Z,0.20
2023-04-13T08:21:11.144Z,0.20
2023-04-13T08:23:42.309Z,0.20
2023-04-13T08:26:19.233Z,0.30
2023-04-13T08:28:47.981Z,0.20
2023-04-13T08:31:15.948Z,0.20
2023-04-13T08:33:43.670Z,0.17
2023-04-13T08:36:10.688Z,0.20
2023-04-13T08:38:37.499Z,0.20
2023-04-13T08:41:04.260Z,0.30
2023-04-13T08:43:34.089Z,0.20
2023-04-13T08:46:00.944Z,0.20
2023-04-13T08:48:30.254Z,0.20
2023-04-13T08:51:01.633Z,0.20
2023-04-13T08:53:29.999Z,0.27
2023-04-13T08:56:00.821Z,0.30
2023-04-13T08:58:29.528Z,0.40
2023-04-13T09:00:57.682Z,6.17
2023-04-13T09:03:25.444Z,0.30
2023-04-13T09:05:59.654Z,1.10
2023-04-13T09:08:27.787Z,0.47
2023-04-13T09:10:58.389Z,0.60
2023-04-13T09:13:27.523Z,0.20
2023-04-13T09:15:54.413Z,1.33
2023-04-13T09:18:21.142Z,2.67
2023-04-13T09:21:00.770Z,0.60
2023-04-13T09:23:28.017Z,5.83
2023-04-13T09:26:10.288Z,6.50
2023-04-13T09:28:51.934Z,0.50
2023-04-13T09:31:20.183Z,0.50
2023-04-13T09:33:52.512Z,0.80
2023-04-13T09:36:21.666Z,0.80
2023-04-13T09:38:53.525Z,1.10
2023-04-13T09:41:37.850Z,0.70
2023-04-13T09:44:25.858Z,0.90
2023-04-13T09:46:59.507Z,0.77
2023-04-13T09:49:27.079Z,0.43
2023-04-13T09:51:56.257Z,0.47
2023-04-13T09:54:23.151Z,0.77
2023-04-13T09:56:54.664Z,6.47
2023-04-13T09:59:24.864Z,1.00
2023-04-13T10:01:52.312Z,1.90
2023-04-13T10:04:19.629Z,0.87
2023-04-13T10:06:50.252Z,0.63
2023-04-13T10:09:17.747Z,2.23
2023-04-13T10:11:44.466Z,1.60
2023-04-13T10:14:33.987Z,0.70
2023-04-13T10:17:32.034Z,0.30
2023-04-13T10:20:02.046Z,0.53
2023-04-13T10:22:29.968Z,0.30
2023-04-13T10:24:56.967Z,1.07
2023-04-13T10:27:28.471Z,0.50
2023-04-13T10:29:55.242Z,0.90
2023-04-13T10:32:27.592Z,1.13
2023-04-13T10:34:55.331Z,1.40
2023-04-13T10:37:23.841Z,0.80
2023-04-13T10:40:02.160Z,0.70
2023-04-13T10:42:51.894Z,0.70
2023-04-13T10:45:26.191Z,0.37
2023-04-13T10:47:54.358Z,0.30
2023-04-13T10:50:24.835Z,0.40
2023-04-13T10:53:00.600Z,0.50
2023-04-13T10:55:27.852Z,0.37
2023-04-13T10:57:56.490Z,0.40
2023-04-13T11:00:34.727Z,0.40
2023-04-13T11:03:11.588Z,0.47
2023-04-13T11:05:38.891Z,0.50
2023-04-13T11:08:05.956Z,1.77
2023-04-13T11:10:32.645Z,1.30
2023-04-13T11:12:59.418Z,1.27
2023-04-13T11:15:30.640Z,2.00
2023-04-13T11:17:58.972Z,3.00
2023-04-13T11:20:36.365Z,1.37
2023-04-13T11:23:06.517Z,1.73
2023-04-13T11:25:36.578Z,2.60
2023-04-13T11:28:04.304Z,0.50
2023-04-13T11:30:32.739Z,0.63
2023-04-13T11:33:01.162Z,0.63
2023-04-13T11:35:28.077Z,0.43
2023-04-13T11:37:56.253Z,0.23
2023-04-13T11:40:27.379Z,0.80
2023-04-13T11:42:56.004Z,0.60
2023-04-13T11:45:25.639Z,1.10
2023-04-13T11:47:53.270Z,2.87
2023-04-13T11:50:21.566Z,2.17
2023-04-13T11:52:49.775Z,0.53
2023-04-13T11:55:23.365Z,0.47
2023-04-13T11:57:51.702Z,0.67
2023-04-13T12:00:24.490Z,0.40
2023-04-13T12:03:02.308Z,0.60
2023-04-13T12:05:32.427Z,0.70
2023-04-13T12:08:03.118Z,0.47
2023-04-13T12:10:41.395Z,0.93
2023-04-13T12:13:26.662Z,0.43
2023-04-13T12:16:08.786Z,0.33
2023-04-13T12:18:47.099Z,0.23
2023-04-13T12:21:20.465Z,0.30
2023-04-13T12:23:55.588Z,0.30
2023-04-13T12:28:57.737Z,0.50
2023-04-13T12:31:25.079Z,0.60
2023-04-13T12:33:51.903Z,0.40
2023-04-13T12:36:18.679Z,0.27
2023-04-13T12:38:46.061Z,0.50
2023-04-13T12:41:12.822Z,0.33
2023-04-13T12:43:39.637Z,0.60
2023-04-13T12:46:06.472Z,0.60
2023-04-13T12:48:33.235Z,0.70
2023-04-13T12:51:00.039Z,0.80
2023-04-13T12:53:27.031Z,0.57
2023-04-13T12:55:53.805Z,0.20
2023-04-13T12:58:20.665Z,0.50
2023-04-13T13:00:47.560Z,0.83
2023-04-13T13:03:15.306Z,0.90
2023-04-13T13:05:42.520Z,1.37
2023-04-13T13:08:09.537Z,0.90
2023-04-13T13:10:37.258Z,1.43
2023-04-13T13:13:04.300Z,1.00
2023-04-13T13:15:32.594Z,2.27
2023-04-13T13:18:04.164Z,1.40
2023-04-13T13:20:31.390Z,1.80
2023-04-13T13:22:58.388Z,0.90
2023-04-13T13:25:25.340Z,1.03
2023-04-13T13:30:21.990Z,0.70
2023-04-13T13:32:48.913Z,2.00
2023-04-13T13:35:17.063Z,5.50
2023-04-13T13:37:44.521Z,1.30
2023-04-13T13:40:13.368Z,1.60
2023-04-13T13:42:51.215Z,1.27
2023-04-13T13:45:20.099Z,0.63
2023-04-13T13:47:58.357Z,0.70
2023-04-13T13:50:25.270Z,0.97
2023-04-13T13:53:03.322Z,0.40
2023-04-13T13:55:31.269Z,0.90
2023-04-13T13:57:58.053Z,0.30
2023-04-13T14:00:25.991Z,0.30
2023-04-13T14:02:53.276Z,0.30
2023-04-13T14:05:22.011Z,0.23
2023-04-13T14:07:48.829Z,0.40
2023-04-13T14:10:15.856Z,0.60
2023-04-13T14:12:47.462Z,0.70
2023-04-13T14:15:16.180Z,0.40
2023-04-13T14:17:42.981Z,0.20
2023-04-13T14:20:11.995Z,0.73
2023-04-13T14:22:40.083Z,0.80
2023-04-13T14:25:09.074Z,0.50
2023-04-13T14:27:36.262Z,0.70
2023-04-13T14:30:03.489Z,2.07
2023-04-13T14:32:30.308Z,1.73
2023-04-13T14:35:00.619Z,1.00
2023-04-13T14:37:28.242Z,1.83
2023-04-13T14:39:55.682Z,2.30
2023-04-13T14:42:24.500Z,2.40
2023-04-13T14:44:54.153Z,1.77
2023-04-13T14:47:20.919Z,0.90
2023-04-13T14:49:48.233Z,1.13
2023-04-13T14:52:15.196Z,2.90
2023-04-13T14:54:42.326Z,3.23
2023-04-13T14:57:10.034Z,1.27
2023-04-13T14:59:37.398Z,1.00
2023-04-13T15:02:04.687Z,1.03
2023-04-13T15:04:31.920Z,1.10
2023-04-13T15:07:00.379Z,2.47
2023-04-13T15:09:27.474Z,1.20
2023-04-13T15:11:54.372Z,1.13
2023-04-13T15:14:21.199Z,0.60
2023-04-13T15:16:48.084Z,0.93
2023-04-13T15:19:14.883Z,0.87
2023-04-13T15:21:41.896Z,0.30
2023-04-13T15:24:10.136Z,0.43
2023-04-13T15:26:41.468Z,0.60
2023-04-13T15:29:09.057Z,0.37
2023-04-13T15:31:37.801Z,0.40
2023-04-13T15:34:08.992Z,0.50
2023-04-13T15:36:36.645Z,1.10
2023-04-13T15:39:04.725Z,0.40
2023-04-13T15:41:32.004Z,0.60
2023-04-13T15:44:03.376Z,0.57
2023-04-13T15:46:30.514Z,0.40
2023-04-13T15:48:57.504Z,0.50
2023-04-13T15:51:24.345Z,0.73
2023-04-13T15:53:51.052Z,0.80
2023-04-13T15:56:18.663Z,0.70
2023-04-13T15:58:45.508Z,0.30
2023-04-13T16:01:13.189Z,0.50
2023-04-13T16:03:41.029Z,0.57
2023-04-13T16:06:07.897Z,0.80
2023-04-13T16:08:34.549Z,0.50
2023-04-13T16:11:01.568Z,0.43
2023-04-13T16:13:44.948Z,0.73
2023-04-13T16:16:14.768Z,0.70
2023-04-13T16:18:41.569Z,0.80
2023-04-13T16:21:08.182Z,4.00
2023-04-13T16:23:34.859Z,2.43
2023-04-13T16:26:02.914Z,3.23
2023-04-13T16:28:29.899Z,1.87
2023-04-13T16:30:56.650Z,2.20
2023-04-13T16:33:23.673Z,1.60
2023-04-13T16:35:51.394Z,1.60
2023-04-13T16:38:18.012Z,2.87
2023-04-13T16:40:44.678Z,1.80
2023-04-13T16:43:11.333Z,5.57
2023-04-13T16:45:37.992Z,1.70
2023-04-13T16:48:05.589Z,0.77
2023-04-13T16:50:32.639Z,0.77
2023-04-13T16:52:59.757Z,0.80
2023-04-13T16:55:28.701Z,0.60
2023-04-13T16:57:56.103Z,0.60
2023-04-13T17:00:23.334Z,1.30
2023-04-13T17:02:50.331Z,0.93
2023-04-13T17:05:17.379Z,1.13
2023-04-13T17:07:44.732Z,1.33
2023-04-13T17:10:13.111Z,1.37
2023-04-13T17:12:40.506Z,1.70
2023-04-13T17:15:07.968Z,2.47
2023-04-13T17:17:35.103Z,3.23
2023-04-13T17:20:02.166Z,3.57
2023-04-13T17:22:28.946Z,3.63
2023-04-13T17:24:56.105Z,2.03
2023-04-13T17:27:23.097Z,1.70
2023-04-13T17:29:50.058Z,2.07
2023-04-13T17:32:19.124Z,2.00
2023-04-13T17:34:45.941Z,1.00
2023-04-13T17:37:12.749Z,0.77
2023-04-13T17:39:43.267Z,0.93
2023-04-13T17:42:10.001Z,0.83
2023-04-13T17:44:37.121Z,0.63
2023-04-13T17:47:04.060Z,0.90
2023-04-13T17:49:31.004Z,1.20
2023-04-13T17:51:59.711Z,1.10
2023-04-13T17:54:27.381Z,0.80
2023-04-13T17:56:54.656Z,0.93
2023-04-13T17:59:21.778Z,1.00
2023-04-13T18:01:51.279Z,1.23
2023-04-13T18:04:18.472Z,1.20
2023-04-13T18:06:45.209Z,1.63
2023-04-13T18:09:14.734Z,1.20
2023-04-13T18:11:41.383Z,2.63
2023-04-13T18:14:09.218Z,1.90
2023-04-13T18:16:36.157Z,1.60
2023-04-13T18:19:03.071Z,1.90
2023-04-13T18:21:30.084Z,1.00
2023-04-13T18:23:57.103Z,0.90
2023-04-13T18:26:24.454Z,1.60
2023-04-13T18:28:51.365Z,1.20
2023-04-13T18:31:17.993Z,0.80
2023-04-13T18:33:45.156Z,1.00
2023-04-13T18:36:16.324Z,2.53
2023-04-13T18:38:44.032Z,2.03
2023-04-13T18:41:11.451Z,2.80
2023-04-13T18:43:38.450Z,0.90
2023-04-13T18:46:05.364Z,1.20
2023-04-13T18:48:32.108Z,1.63
2023-04-13T18:50:59.027Z,1.80
2023-04-13T18:53:25.911Z,1.67
2023-04-13T18:55:52.618Z,1.03
2023-04-13T18:58:19.865Z,0.70
2023-04-13T19:00:47.558Z,0.77
2023-04-13T19:03:14.583Z,0.83
2023-04-13T19:05:41.369Z,0.80
2023-04-13T19:08:10.020Z,0.70
2023-04-13T19:10:36.810Z,0.50
2023-04-13T19:13:03.530Z,0.87
2023-04-13T19:15:31.129Z,2.10
2023-04-13T19:17:59.450Z,3.30
2023-04-13T19:20:26.284Z,1.00
2023-04-13T19:23:00.760Z,0.97
2023-04-13T19:25:30.357Z,1.40
2023-04-13T19:27:59.777Z,1.47
2023-04-13T19:30:29.084Z,1.40
2023-04-13T19:32:56.730Z,1.43
2023-04-13T19:35:24.541Z,1.27
2023-04-13T19:37:51.228Z,1.53
2023-04-13T19:40:18.078Z,1.83
2023-04-13T19:42:47.004Z,1.80
2023-04-13T19:45:15.322Z,1.47
2023-04-13T19:47:42.522Z,1.13
2023-04-13T19:50:11.478Z,1.20
2023-04-13T19:52:39.615Z,1.60
2023-04-13T19:55:07.754Z,1.80
2023-04-13T19:57:37.226Z,1.40
2023-04-13T20:00:08.853Z,1.23
2023-04-13T20:02:35.812Z,1.47
2023-04-13T20:05:02.569Z,1.63
2023-04-13T20:07:29.172Z,1.17
2023-04-13T20:09:55.909Z,1.33
2023-04-13T20:12:22.626Z,2.10
2023-04-13T20:14:49.504Z,1.97
2023-04-13T20:17:16.363Z,1.57
2023-04-13T20:19:42.982Z,1.30
2023-04-13T20:22:10.286Z,2.00
2023-04-13T20:24:36.967Z,2.07
2023-04-13T20:27:03.589Z,1.70
2023-04-13T20:29:30.208Z,1.30
2023-04-13T20:31:56.850Z,1.60
2023-04-13T20:34:24.372Z,1.50
2023-04-13T20:36:51.115Z,1.20
2023-04-13T20:39:25.490Z,1.00
2023-04-13T20:41:55.196Z,0.67
2023-04-13T20:44:25.822Z,0.90
2023-04-13T20:46:56.127Z,1.13
2023-04-13T20:49:24.138Z,0.77
2023-04-13T20:51:53.808Z,0.77
2023-04-13T20:54:20.617Z,0.57
2023-04-13T20:56:49.233Z,0.80
2023-04-13T20:59:17.048Z,0.47
2023-04-13T21:01:43.968Z,0.90
2023-04-13T21:04:10.619Z,0.93
2023-04-13T21:06:37.454Z,0.50
2023-04-13T21:09:08.255Z,1.10
2023-04-13T21:11:34.987Z,1.83
2023-04-13T21:14:01.887Z,1.23
2023-04-13T21:16:28.889Z,1.17
2023-04-13T21:18:56.025Z,1.20
2023-04-13T21:21:23.642Z,0.93
2023-04-13T21:23:51.212Z,1.10
2023-04-13T21:26:18.019Z,1.00
2023-04-13T21:28:44.652Z,0.93
2023-04-13T21:31:11.276Z,0.90
2023-04-13T21:33:37.962Z,0.93
2023-04-13T21:38:41.700Z,0.93
2023-04-13T21:41:18.653Z,1.00
2023-04-13T21:43:45.959Z,1.03
2023-04-13T21:46:14.268Z,0.67
2023-04-13T21:48:41.530Z,0.73
2023-04-13T21:51:09.222Z,1.13
2023-04-13T21:53:36.548Z,0.90
2023-04-13T21:56:03.428Z,1.20
2023-04-13T21:58:37.996Z,0.90
2023-04-13T22:01:04.798Z,1.27
2023-04-13T22:03:31.633Z,1.10
2023-04-13T22:05:58.523Z,1.13
2023-04-13T22:08:25.158Z,1.23
2023-04-13T22:10:51.942Z,1.37
2023-04-13T22:13:18.555Z,1.60
2023-04-13T22:15:45.303Z,1.50
2023-04-13T22:18:12.317Z,1.40
2023-04-13T22:20:39.005Z,1.20
2023-04-13T22:23:05.859Z,1.40
2023-04-13T22:25:32.463Z,1.57
2023-04-13T22:27:59.026Z,2.07
2023-04-13T22:30:25.771Z,1.77
2023-04-13T22:32:52.395Z,1.70
2023-04-13T22:35:19.101Z,1.60
2023-04-13T22:37:45.707Z,1.80
2023-04-13T22:40:12.379Z,1.90
2023-04-13T22:42:39.054Z,1.80
2023-04-13T22:45:06.204Z,2.03
2023-04-13T22:47:32.837Z,2.30
2023-04-13T22:50:00.920Z,1.57
2023-04-13T22:52:27.781Z,2.00
2023-04-13T22:54:54.434Z,2.23
2023-04-13T22:57:21.604Z,2.20
2023-04-13T22:59:48.238Z,1.77
2023-04-13T23:02:15.102Z,1.83
2023-04-13T23:04:42.023Z,1.73
2023-04-13T23:07:08.807Z,1.60
2023-04-13T23:09:35.578Z,1.40
2023-04-13T23:12:02.251Z,1.50
2023-04-13T23:14:28.977Z,2.10
2023-04-13T23:16:56.092Z,1.40
2023-04-13T23:19:22.831Z,1.57
2023-04-13T23:21:49.624Z,1.30
2023-04-13T23:24:16.426Z,1.40
2023-04-13T23:26:43.151Z,2.20
2023-04-13T23:29:09.844Z,1.80
2023-04-13T23:31:36.776Z,1.47
2023-04-13T23:34:03.565Z,1.27
2023-04-13T23:36:31.115Z,1.30
2023-04-13T23:38:57.952Z,1.07
2023-04-13T23:41:24.815Z,1.60
2023-04-13T23:43:51.761Z,1.57
2023-04-13T23:46:18.629Z,2.70
2023-04-13T23:48:45.616Z,2.80
2023-04-13T23:51:12.321Z,1.90
2023-04-13T23:53:38.977Z,1.60
2023-04-13T23:56:06.660Z,1.93
2023-04-13T23:58:33.387Z,3.43
